createdAt,value
2023-02-17T00:00:50.947Z,0.84
2023-02-17T00:03:57.102Z,0.88
2023-02-17T00:07:00.049Z,0.91
2023-02-17T00:10:04.280Z,0.94
2023-02-17T00:13:07.950Z,0.97
2023-02-17T00:16:18.789Z,1.00
2023-02-17T00:19:25.593Z,0.99
2023-02-17T00:22:30.064Z,0.96
2023-02-17T00:25:34.107Z,0.91
2023-02-17T00:28:37.178Z,0.87
2023-02-17T00:31:44.340Z,0.83
2023-02-17T00:34:47.940Z,0.80
2023-02-17T00:37:55.027Z,0.76
2023-02-17T00:41:00.153Z,0.71
2023-02-17T00:44:04.043Z,0.68
2023-02-17T00:47:07.972Z,0.65
2023-02-17T00:50:14.374Z,0.66
2023-02-17T00:53:17.474Z,0.70
2023-02-17T00:56:23.319Z,0.75
2023-02-17T00:59:29.485Z,0.78
2023-02-17T01:02:32.188Z,0.80
2023-02-17T01:05:42.333Z,0.81
2023-02-17T01:08:44.715Z,0.83
2023-02-17T01:11:53.891Z,0.84
2023-02-17T01:15:00.909Z,0.83
2023-02-17T01:18:06.369Z,0.84
2023-02-17T01:21:22.677Z,0.85
2023-02-17T01:24:26.646Z,0.84
2023-02-17T01:27:32.057Z,0.84
2023-02-17T01:30:35.369Z,0.85
2023-02-17T01:33:41.842Z,0.87
2023-02-17T01:36:44.739Z,0.91
2023-02-17T01:39:49.217Z,0.90
2023-02-17T01:42:56.384Z,0.84
2023-02-17T01:46:01.672Z,0.81
2023-02-17T01:49:31.140Z,0.81
2023-02-17T01:52:40.157Z,0.82
2023-02-17T01:55:43.034Z,0.86
2023-02-17T01:58:59.327Z,0.90
2023-02-17T02:02:06.012Z,0.90
2023-02-17T02:05:12.029Z,0.88
2023-02-17T02:08:16.210Z,0.88
2023-02-17T02:11:20.027Z,0.90
2023-02-17T02:14:26.134Z,0.91
2023-02-17T02:17:51.146Z,0.93
2023-02-17T02:21:06.300Z,0.95
2023-02-17T02:24:44.312Z,0.97
2023-02-17T02:28:09.595Z,0.93
2023-02-17T02:31:29.545Z,0.91
2023-02-17T02:34:57.798Z,0.91
2023-02-17T02:38:06.993Z,0.92
2023-02-17T02:41:26.892Z,0.94
2023-02-17T02:44:32.170Z,0.93
2023-02-17T02:47:58.116Z,0.91
2023-02-17T02:51:13.882Z,0.89
2023-02-17T02:54:41.459Z,0.87
2023-02-17T02:58:03.061Z,0.87
2023-02-17T03:01:34.546Z,0.90
2023-02-17T03:04:45.858Z,0.93
2023-02-17T03:07:58.744Z,0.96
2023-02-17T03:11:09.188Z,0.99
2023-02-17T03:14:17.521Z,0.99
2023-02-17T03:22:52.688Z,1.05
2023-02-17T03:25:57.338Z,1.08
2023-02-17T03:29:00.490Z,1.09
2023-02-17T03:32:07.809Z,1.08
2023-02-17T03:35:12.497Z,1.06
2023-02-17T03:38:14.995Z,1.02
2023-02-17T03:41:22.082Z,1.00
2023-02-17T03:44:32.623Z,1.02
2023-02-17T03:47:40.247Z,1.04
2023-02-17T03:50:46.371Z,1.05
2023-02-17T03:53:49.713Z,0.99
2023-02-17T03:56:54.643Z,0.93
2023-02-17T03:59:59.629Z,0.89
2023-02-17T04:03:02.726Z,0.85
2023-02-17T04:06:08.711Z,0.85
2023-02-17T04:09:13.336Z,0.87
2023-02-17T04:12:16.317Z,0.88
2023-02-17T04:15:19.949Z,0.90
2023-02-17T04:18:31.841Z,0.90
2023-02-17T04:21:34.674Z,0.88
2023-02-17T04:24:41.372Z,0.90
2023-02-17T04:27:54.320Z,0.94
2023-02-17T04:31:00.059Z,1.02
2023-02-17T04:34:03.640Z,1.08
2023-02-17T04:37:06.566Z,1.13
2023-02-17T04:40:10.682Z,1.13
2023-02-17T04:43:14.191Z,1.11
2023-02-17T04:46:16.281Z,1.09
2023-02-17T04:49:20.698Z,1.08
2023-02-17T04:52:22.962Z,1.08
2023-02-17T04:55:29.484Z,1.09
2023-02-17T04:58:40.490Z,1.11
2023-02-17T05:01:45.986Z,1.14
2023-02-17T05:04:57.460Z,1.16
2023-02-17T05:08:01.887Z,1.12
2023-02-17T05:11:11.393Z,1.09
2023-02-17T05:14:18.680Z,1.10
2023-02-17T05:17:27.640Z,1.10
2023-02-17T05:20:37.958Z,1.11
2023-02-17T05:23:40.979Z,1.14
2023-02-17T05:26:46.627Z,1.15
2023-02-17T05:29:52.261Z,1.17
2023-02-17T05:32:58.104Z,1.14
2023-02-17T05:36:13.717Z,1.12
2023-02-17T05:39:28.401Z,1.15
2023-02-17T05:42:33.721Z,1.21
2023-02-17T05:45:38.581Z,1.29
2023-02-17T05:48:48.107Z,1.36
2023-02-17T05:51:55.669Z,1.38
2023-02-17T05:55:05.779Z,1.36
2023-02-17T05:58:12.653Z,1.32
2023-02-17T06:01:19.637Z,1.32
2023-02-17T06:04:23.401Z,1.34
2023-02-17T06:07:28.226Z,1.36
2023-02-17T06:10:41.904Z,1.39
2023-02-17T06:13:45.698Z,1.40
2023-02-17T06:16:56.490Z,1.40
2023-02-17T06:20:05.726Z,1.44
2023-02-17T06:23:11.003Z,1.44
2023-02-17T06:26:18.371Z,1.44
2023-02-17T06:29:43.167Z,1.44
2023-02-17T06:32:54.645Z,1.44
2023-02-17T06:36:05.541Z,1.46
2023-02-17T06:39:13.384Z,1.42
2023-02-17T06:42:27.084Z,1.35
2023-02-17T06:45:36.004Z,1.33
2023-02-17T06:48:45.544Z,1.32
2023-02-17T06:51:49.255Z,1.33
2023-02-17T06:54:52.792Z,1.37
2023-02-17T06:57:58.562Z,1.41
2023-02-17T07:01:12.058Z,1.46
2023-02-17T07:04:20.861Z,1.51
2023-02-17T07:07:29.890Z,1.57
2023-02-17T07:10:45.229Z,1.62
2023-02-17T07:13:56.525Z,1.68
2023-02-17T07:17:04.595Z,1.72
2023-02-17T07:20:13.047Z,1.73
2023-02-17T07:23:20.470Z,1.72
2023-02-17T07:26:25.547Z,1.69
2023-02-17T07:29:37.507Z,1.69
2023-02-17T07:32:43.984Z,1.69
2023-02-17T07:36:00.840Z,1.70
2023-02-17T07:39:13.020Z,1.72
2023-02-17T07:42:16.213Z,1.68
2023-02-17T07:45:26.146Z,1.64
2023-02-17T07:48:29.902Z,1.62
2023-02-17T07:51:39.144Z,1.60
2023-02-17T07:54:42.759Z,1.59
2023-02-17T07:57:46.519Z,1.60
2023-02-17T08:00:54.743Z,1.58
2023-02-17T08:04:02.728Z,1.59
2023-02-17T08:07:08.413Z,1.64
2023-02-17T08:10:33.956Z,1.68
2023-02-17T08:13:39.316Z,1.62
2023-02-17T08:16:48.358Z,1.60
2023-02-17T08:19:52.169Z,1.59
2023-02-17T08:22:57.546Z,1.53
2023-02-17T08:26:12.737Z,1.48
2023-02-17T08:29:24.318Z,1.44
2023-02-17T08:32:31.355Z,1.38
2023-02-17T08:35:43.809Z,1.37
2023-02-17T08:38:51.323Z,1.35
2023-02-17T08:41:56.724Z,1.37
2023-02-17T08:45:03.904Z,1.38
2023-02-17T08:48:12.157Z,1.44
2023-02-17T08:51:25.444Z,1.49
2023-02-17T08:54:31.007Z,1.46
2023-02-17T08:57:35.247Z,1.47
2023-02-17T09:00:39.728Z,1.50
2023-02-17T09:03:45.128Z,1.55
2023-02-17T09:06:58.507Z,1.55
2023-02-17T09:10:04.337Z,1.52
2023-02-17T09:13:14.062Z,1.50
2023-02-17T09:16:20.464Z,1.49
2023-02-17T09:19:29.716Z,1.50
2023-02-17T09:22:34.234Z,1.51
2023-02-17T09:25:37.343Z,1.53
2023-02-17T09:28:42.888Z,1.51
2023-02-17T09:31:51.039Z,1.50
2023-02-17T09:34:55.818Z,1.54
2023-02-17T09:37:58.899Z,1.59
2023-02-17T09:41:37.493Z,1.57
2023-02-17T09:44:50.514Z,1.55
2023-02-17T09:48:03.136Z,1.54
2023-02-17T09:51:35.454Z,1.60
2023-02-17T09:54:53.338Z,1.61
2023-02-17T09:58:23.173Z,1.59
2023-02-17T10:01:34.305Z,1.60
2023-02-17T10:04:43.357Z,1.64
2023-02-17T10:08:12.363Z,1.69
2023-02-17T10:11:56.828Z,1.71
2023-02-17T10:15:12.463Z,1.71
2023-02-17T10:18:49.388Z,1.73
2023-02-17T10:22:14.537Z,1.82
2023-02-17T10:25:40.688Z,1.87
2023-02-17T10:28:56.915Z,1.94
2023-02-17T12:16:28.727Z,1.84
2023-02-17T12:20:07.925Z,1.93
2023-02-17T12:23:44.518Z,2.00
2023-02-17T12:27:32.504Z,2.12
2023-02-17T12:35:04.506Z,2.35
2023-02-17T12:38:21.745Z,2.37
2023-02-17T12:41:59.427Z,2.41
2023-02-17T12:45:11.210Z,2.42
2023-02-17T12:48:31.586Z,2.38
2023-02-17T12:51:51.801Z,2.36
2023-02-17T12:55:03.549Z,2.38
2023-02-17T12:58:22.351Z,2.38
2023-02-17T13:01:32.386Z,2.33
2023-02-17T13:04:41.385Z,2.28
2023-02-17T13:07:51.840Z,2.24
2023-02-17T13:11:11.615Z,2.19
2023-02-17T13:14:52.392Z,2.19
2023-02-17T13:18:23.456Z,2.22
2023-02-17T13:21:35.364Z,2.23
2023-02-17T13:24:53.367Z,2.23
2023-02-17T13:28:01.900Z,2.21
2023-02-17T13:31:30.592Z,2.22
2023-02-17T13:34:41.989Z,2.24
2023-02-17T13:37:48.473Z,2.34
2023-02-17T13:41:00.545Z,2.46
2023-02-17T13:44:39.755Z,2.55
2023-02-17T13:47:49.078Z,2.61
2023-02-17T13:50:56.424Z,2.58
2023-02-17T13:54:14.925Z,2.51
2023-02-17T13:57:34.301Z,2.49
2023-02-17T14:00:42.528Z,2.49
2023-02-17T14:03:54.819Z,2.53
2023-02-17T14:07:04.156Z,2.58
2023-02-17T14:10:22.193Z,2.64
2023-02-17T14:13:29.842Z,2.69
2023-02-17T14:16:39.456Z,2.72
2023-02-17T14:25:33.151Z,2.77
2023-02-17T14:29:39.641Z,2.73
2023-02-17T14:33:29.235Z,2.72
2023-02-17T14:36:43.715Z,2.68
2023-02-17T14:44:16.110Z,2.54
2023-02-17T14:48:00.981Z,2.48
2023-02-17T14:51:22.447Z,2.41
2023-02-17T14:55:14.839Z,2.36
2023-02-17T14:58:24.586Z,2.28
2023-02-17T15:01:31.530Z,2.19
2023-02-17T15:04:41.791Z,2.11
2023-02-17T15:07:50.283Z,2.03
2023-02-17T15:10:57.146Z,1.95
2023-02-17T15:14:06.536Z,1.91
2023-02-17T15:17:11.651Z,1.94
2023-02-17T15:20:17.244Z,1.99
2023-02-17T15:23:26.410Z,2.00
2023-02-17T15:26:32.805Z,1.97
2023-02-17T15:29:36.980Z,1.91
2023-02-17T15:32:41.646Z,1.88
2023-02-17T15:35:52.934Z,1.86
2023-02-17T15:38:58.589Z,1.89
2023-02-17T15:42:08.692Z,1.93
2023-02-17T15:45:19.819Z,1.97
2023-02-17T15:48:26.092Z,1.98
2023-02-17T15:51:28.950Z,1.94
2023-02-17T15:54:51.220Z,1.78
2023-02-17T15:58:11.024Z,1.70
2023-02-17T16:01:28.219Z,1.65
2023-02-17T16:04:32.019Z,1.62
2023-02-17T16:07:38.590Z,1.57
2023-02-17T16:10:46.817Z,1.56
2023-02-17T16:13:54.710Z,1.47
2023-02-17T16:16:58.163Z,1.33
2023-02-17T16:32:08.129Z,1.34
2023-02-17T16:35:32.033Z,1.24
2023-02-17T16:38:35.121Z,1.12
2023-02-17T16:41:41.858Z,1.05
2023-02-17T16:44:53.997Z,0.95
2023-02-17T16:48:00.074Z,0.94
2023-02-17T16:51:03.049Z,0.94
2023-02-17T16:54:06.838Z,0.98
2023-02-17T16:57:19.981Z,0.99
2023-02-17T17:00:28.355Z,0.99
2023-02-17T17:03:37.090Z,0.96
2023-02-17T17:06:46.479Z,0.93
2023-02-17T17:10:15.126Z,0.94
2023-02-17T17:13:17.487Z,0.96
2023-02-17T17:16:34.585Z,0.96
2023-02-17T17:19:45.026Z,0.93
2023-02-17T17:22:52.009Z,0.86
2023-02-17T17:26:03.451Z,0.81
2023-02-17T17:29:13.252Z,0.74
2023-02-17T17:32:18.222Z,0.66
2023-02-17T17:35:24.786Z,0.62
2023-02-17T17:38:38.280Z,0.60
2023-02-17T17:41:44.438Z,0.62
2023-02-17T17:44:50.400Z,0.64
2023-02-17T17:47:56.274Z,0.62
2023-02-17T17:51:01.202Z,0.58
2023-02-17T17:54:06.952Z,0.54
2023-02-17T17:57:17.024Z,0.52
2023-02-17T18:00:21.807Z,0.53
2023-02-17T18:03:28.018Z,0.55
2023-02-17T18:07:06.161Z,0.59
2023-02-17T18:10:15.228Z,0.58
2023-02-17T18:13:25.740Z,0.51
2023-02-17T18:16:32.522Z,0.45
2023-02-17T18:19:45.422Z,0.43
2023-02-17T18:22:53.388Z,0.36
2023-02-17T18:26:04.928Z,0.36
2023-02-17T18:29:17.934Z,0.39
2023-02-17T18:32:24.385Z,0.42
2023-02-17T18:35:34.053Z,0.41
2023-02-17T18:39:11.022Z,0.37
2023-02-17T18:42:17.904Z,0.35
2023-02-17T18:45:29.815Z,0.31
2023-02-17T18:48:43.316Z,0.32
2023-02-17T18:52:27.509Z,0.32
2023-02-17T18:55:35.790Z,0.35
2023-02-17T18:58:46.546Z,0.38
2023-02-17T19:01:51.626Z,0.41
2023-02-17T19:04:57.274Z,0.42
2023-02-17T19:08:08.300Z,0.42
2023-02-17T19:11:16.500Z,0.38
2023-02-17T19:14:23.694Z,0.35
2023-02-17T19:17:29.993Z,0.34
2023-02-17T19:20:43.021Z,0.34
2023-02-17T19:23:57.764Z,0.32
2023-02-17T19:27:14.082Z,0.31
2023-02-17T19:30:30.484Z,0.30
2023-02-17T19:34:25.002Z,0.26
2023-02-17T19:37:33.578Z,0.20
2023-02-17T19:40:55.544Z,0.18
2023-02-17T19:44:01.322Z,0.17
2023-02-17T19:47:08.895Z,0.21
2023-02-17T19:50:17.791Z,0.26
2023-02-17T19:53:43.385Z,0.28
2023-02-17T19:57:04.738Z,0.36
2023-02-17T20:00:14.238Z,0.43
2023-02-17T20:03:26.328Z,0.49
2023-02-17T20:10:05.787Z,0.52
2023-02-17T20:13:17.278Z,0.50
2023-02-17T20:16:26.504Z,0.50
2023-02-17T20:19:32.826Z,0.52
2023-02-17T20:22:39.362Z,0.56
2023-02-17T20:25:44.253Z,0.59
2023-02-17T20:28:50.661Z,0.56
2023-02-17T20:32:01.862Z,0.51
2023-02-17T20:35:08.186Z,0.50
2023-02-17T20:38:19.531Z,0.47
2023-02-17T20:41:32.451Z,0.43
2023-02-17T20:44:35.949Z,0.42
2023-02-17T20:47:39.704Z,0.38
2023-02-17T20:50:45.333Z,0.37
2023-02-17T20:53:52.791Z,0.38
2023-02-17T20:57:01.703Z,0.44
2023-02-17T21:00:16.144Z,0.47
2023-02-17T21:03:19.578Z,0.47
2023-02-17T21:06:38.954Z,0.49
2023-02-17T21:09:46.797Z,0.49
2023-02-17T21:12:53.248Z,0.47
2023-02-17T21:15:59.291Z,0.47
2023-02-17T21:19:07.305Z,0.47
2023-02-17T21:22:15.947Z,0.47
2023-02-17T21:25:19.870Z,0.48
2023-02-17T21:28:25.806Z,0.49
2023-02-17T21:31:33.065Z,0.50
2023-02-17T21:34:37.744Z,0.51
2023-02-17T21:37:43.443Z,0.49
2023-02-17T21:40:48.068Z,0.49
2023-02-17T21:44:11.722Z,0.52
2023-02-17T21:50:03.870Z,0.57
2023-02-17T21:53:07.782Z,0.57
2023-02-17T21:56:13.735Z,0.59
2023-02-17T21:59:18.781Z,0.61
2023-02-17T22:02:31.884Z,0.61
2023-02-17T22:05:36.722Z,0.61
2023-02-17T22:08:46.392Z,0.64
2023-02-17T22:11:56.274Z,0.70
2023-02-17T22:15:05.096Z,0.72
2023-02-17T22:18:55.883Z,0.76
2023-02-17T22:22:02.492Z,0.77
2023-02-17T22:25:08.121Z,0.80
2023-02-17T22:28:13.487Z,0.82
2023-02-17T22:31:26.693Z,0.84
2023-02-17T22:34:39.852Z,0.86
2023-02-17T22:37:43.418Z,0.89
2023-02-17T22:40:48.220Z,0.89
2023-02-17T22:43:54.295Z,0.89
2023-02-17T22:47:02.696Z,0.87
2023-02-17T22:50:14.615Z,0.85
2023-02-17T22:53:25.975Z,0.88
2023-02-17T22:56:31.255Z,0.91
2023-02-17T22:59:34.523Z,0.94
2023-02-17T23:02:42.381Z,0.97
2023-02-17T23:05:46.747Z,0.97
2023-02-17T23:08:52.399Z,0.95
2023-02-17T23:11:58.077Z,0.93
2023-02-17T23:15:10.706Z,0.96
2023-02-17T23:18:18.172Z,1.00
2023-02-17T23:21:28.751Z,1.05
2023-02-17T23:24:43.034Z,1.10
2023-02-17T23:27:47.726Z,1.14
2023-02-17T23:30:52.916Z,1.15
2023-02-17T23:34:01.326Z,1.15
2023-02-17T23:37:06.835Z,1.14
2023-02-17T23:40:13.250Z,1.15
2023-02-17T23:43:21.936Z,1.18
2023-02-17T23:46:31.391Z,1.24
2023-02-17T23:50:03.868Z,1.28
2023-02-17T23:53:42.973Z,1.27
2023-02-17T23:57:15.104Z,1.24
